Time;durP1;ratioP1;P1;durP2;ratioP2;P2;SDS_P1;SDS_P2;PMS_P1;PMS_P2;Temp;Humidity;BMP_temperature;BMP_pressure;BME280_temperature;BME280_humidity;BME280_pressure;Samples;Min_cycle;Max_cycle;Signal;HPM_P1;HPM_P2
2024/02/18 00:00:48;;;;;;;57.20;30.38;;;;;;;8.17;92.37;100497.81;5016312;28;20033;-87
2024/02/18 00:03:14;;;;;;;54.75;30.40;;;;;;;7.85;92.15;100479.75;5009460;28;20029;-86
2024/02/18 00:05:39;;;;;;;53.97;29.38;;;;;;;8.00;93.16;100467.19;5012087;28;20108;-87
2024/02/18 00:08:05;;;;;;;58.85;30.30;;;;;;;8.01;93.54;100490.94;5026762;28;20700;-87
2024/02/18 00:10:30;;;;;;;59.40;30.67;;;;;;;8.16;92.09;100467.75;5031100;28;20095;-87
2024/02/18 00:12:56;;;;;;;52.78;28.27;;;;;;;8.19;91.15;100458.56;5013012;28;20033;-85
2024/02/18 00:15:21;;;;;;;54.85;29.35;;;;;;;8.23;91.21;100454.50;5010216;28;20085;-85
2024/02/18 00:17:46;;;;;;;54.30;28.33;;;;;;;7.96;90.75;100404.78;5025223;28;20029;-85
2024/02/18 00:20:12;;;;;;;56.08;26.17;;;;;;;8.48;90.32;100484.16;5010448;28;20476;-85
2024/02/18 00:22:38;;;;;;;54.28;27.58;;;;;;;8.36;90.81;100449.31;4992017;28;20040;-87
2024/02/18 00:25:06;;;;;;;53.53;29.80;;;;;;;8.07;90.83;100409.56;5028185;28;20037;-88
2024/02/18 00:27:32;;;;;;;51.75;27.35;;;;;;;8.19;90.67;100442.59;5013597;28;20060;-87
2024/02/18 00:29:58;;;;;;;52.80;27.70;;;;;;;8.22;90.98;100474.94;5016200;28;20033;-87
2024/02/18 00:32:23;;;;;;;45.90;27.02;;;;;;;7.83;90.78;100373.63;5030651;28;20041;-87
2024/02/18 00:34:49;;;;;;;48.15;26.58;;;;;;;8.57;90.62;100461.69;5004780;28;20033;-87
2024/02/18 00:37:14;;;;;;;54.92;26.88;;;;;;;8.55;89.66;100467.22;5015754;28;20067;-87
2024/02/18 00:39:39;;;;;;;48.58;25.67;;;;;;;8.47;89.36;100446.09;5038996;28;20030;-86
2024/02/18 00:42:06;;;;;;;49.67;27.13;;;;;;;8.49;90.20;100457.38;5031794;28;20029;-87
2024/02/18 00:44:31;;;;;;;50.22;26.23;;;;;;;8.08;90.00;100392.63;5035973;28;20033;-87
2024/02/18 00:46:57;;;;;;;49.88;25.77;;;;;;;8.01;90.39;100391.75;5017583;28;20033;-87
2024/02/18 00:49:22;;;;;;;46.97;25.48;;;;;;;8.45;90.67;100465.94;5019505;28;20041;-86
2024/02/18 00:51:48;;;;;;;46.08;25.88;;;;;;;8.34;90.86;100447.84;5037404;28;20048;-87
2024/02/18 00:54:13;;;;;;;46.00;25.92;;;;;;;8.25;91.41;100456.00;5007383;28;20088;-87
2024/02/18 00:56:39;;;;;;;48.95;26.73;;;;;;;8.40;91.16;100453.22;5020963;28;20045;-87
2024/02/18 00:59:04;;;;;;;49.00;26.42;;;;;;;8.40;90.68;100458.53;5013715;28;20056;-87
2024/02/18 01:01:29;;;;;;;43.15;23.27;;;;;;;8.43;90.32;100439.50;5013435;28;20036;-87
2024/02/18 01:03:55;;;;;;;42.40;23.98;;;;;;;8.54;90.45;100454.91;5030741;28;20057;-87
2024/02/18 01:06:21;;;;;;;44.05;24.40;;;;;;;8.37;89.99;100427.00;5030944;28;20044;-87
2024/02/18 01:08:46;;;;;;;45.90;24.80;;;;;;;8.40;89.89;100429.28;5014876;28;20031;-87
2024/02/18 01:11:12;;;;;;;43.20;24.48;;;;;;;8.59;89.56;100449.84;5033951;28;20041;-87
2024/02/18 01:13:37;;;;;;;43.42;25.13;;;;;;;8.48;89.93;100445.06;5005525;28;20048;-87
2024/02/18 01:16:03;;;;;;;45.20;24.25;;;;;;;8.36;90.19;100427.19;5017199;28;20063;-87
2024/02/18 01:18:28;;;;;;;37.78;22.35;;;;;;;7.96;89.64;100359.59;5032306;28;20038;-87
2024/02/18 01:20:54;;;;;;;47.70;25.38;;;;;;;8.52;90.24;100429.56;5034070;28;20025;-87
2024/02/18 01:23:19;;;;;;;41.47;25.00;;;;;;;8.54;89.59;100430.97;5015967;28;20037;-87
2024/02/18 01:25:45;;;;;;;50.05;24.80;;;;;;;8.04;89.66;100339.00;5030755;28;20493;-87
2024/02/18 01:28:10;;;;;;;46.50;26.83;;;;;;;8.15;90.17;100356.22;5030857;28;20056;-87
2024/02/18 01:30:36;;;;;;;50.53;25.75;;;;;;;8.40;90.47;100404.50;5014702;28;20046;-87
2024/02/18 01:33:02;;;;;;;47.08;26.02;;;;;;;8.27;90.34;100382.13;5031178;28;20036;-88
2024/02/18 01:35:28;;;;;;;53.08;28.20;;;;;;;8.29;90.00;100376.59;5015299;28;20037;-87
2024/02/18 01:37:54;;;;;;;44.80;23.38;;;;;;;8.28;90.30;100389.09;5004188;28;20057;-87
2024/02/18 01:40:19;;;;;;;44.08;25.00;;;;;;;8.04;90.07;100346.13;5029114;28;20167;-87
2024/02/18 01:42:45;;;;;;;41.45;24.23;;;;;;;8.22;90.73;100400.47;5001240;28;20420;-87
2024/02/18 01:45:11;;;;;;;46.53;24.45;;;;;;;8.14;90.18;100381.19;5018238;28;20048;-87
2024/02/18 01:47:40;;;;;;;49.95;25.67;;;;;;;8.20;90.40;100401.69;5013828;28;20061;-87
2024/02/18 01:50:08;;;;;;;48.15;26.65;;;;;;;8.25;90.22;100399.28;5015692;28;20036;-87
2024/02/18 01:52:34;;;;;;;47.25;25.20;;;;;;;8.10;89.95;100391.38;5027478;28;20132;-87
2024/02/18 01:55:00;;;;;;;43.50;26.13;;;;;;;7.90;90.19;100352.41;5032852;28;20053;-88
2024/02/18 01:57:29;;;;;;;50.15;24.10;;;;;;;8.00;90.32;100384.78;5015127;28;20139;-87
2024/02/18 01:59:59;;;;;;;47.97;24.55;;;;;;;7.91;90.36;100380.59;5016998;28;20036;-87
2024/02/18 02:02:25;;;;;;;43.97;25.15;;;;;;;7.36;90.62;100283.13;5031709;28;20037;-87
2024/02/18 02:04:52;;;;;;;50.83;26.60;;;;;;;7.60;90.69;100340.31;5014554;28;20489;-88
2024/02/18 02:07:19;;;;;;;47.53;26.45;;;;;;;7.22;90.14;100273.41;5030969;28;20411;-87
2024/02/18 02:09:45;;;;;;;50.20;24.70;;;;;;;7.88;90.11;100362.41;5030738;28;20033;-87
2024/02/18 02:12:11;;;;;;;46.95;24.52;;;;;;;7.21;90.71;100283.19;5039576;28;20461;-87
2024/02/18 02:14:36;;;;;;;47.13;26.65;;;;;;;7.85;90.05;100360.94;5017537;28;20542;-86
2024/02/18 02:17:02;;;;;;;51.83;26.00;;;;;;;7.68;91.00;100358.78;5015681;28;20056;-87
2024/02/18 02:19:27;;;;;;;46.33;25.23;;;;;;;7.27;90.77;100329.41;5015827;28;20068;-87
2024/02/18 02:21:53;;;;;;;51.83;25.25;;;;;;;7.41;91.90;100363.88;5013673;28;20071;-87
2024/02/18 02:24:18;;;;;;;46.47;25.33;;;;;;;7.40;91.65;100348.94;5014565;28;20290;-87
2024/02/18 02:26:48;;;;;;;48.30;24.90;;;;;;;7.46;90.86;100361.47;5029910;28;20053;-87
2024/02/18 02:29:16;;;;;;;53.88;26.88;;;;;;;7.54;91.59;100360.50;5030686;28;20037;-87
2024/02/18 02:31:44;;;;;;;51.83;25.55;;;;;;;7.55;90.94;100370.13;5029298;28;20037;-87
2024/02/18 02:34:10;;;;;;;44.72;23.55;;;;;;;7.44;91.52;100352.88;5030121;28;20036;-87
2024/02/18 02:36:35;;;;;;;44.25;23.42;;;;;;;7.59;91.36;100368.72;5031034;28;20035;-87
2024/02/18 02:39:02;;;;;;;47.47;25.35;;;;;;;7.54;91.03;100342.72;5032847;28;20108;-87
2024/02/18 02:41:27;;;;;;;48.50;25.63;;;;;;;7.20;90.64;100299.31;5029846;28;20087;-87
2024/02/18 02:43:53;;;;;;;50.28;25.42;;;;;;;7.48;91.63;100363.91;4997742;28;20034;-87
2024/02/18 02:46:18;;;;;;;47.13;24.00;;;;;;;7.33;91.14;100345.41;5026517;28;20037;-87
2024/02/18 02:48:43;;;;;;;47.72;23.85;;;;;;;7.51;90.51;100359.03;5031744;28;20040;-88
2024/02/18 02:51:09;;;;;;;48.92;26.63;;;;;;;7.32;90.84;100337.63;5019752;28;20045;-87
2024/02/18 02:53:34;;;;;;;49.20;24.73;;;;;;;7.27;90.90;100350.66;5014808;28;20037;-87
2024/02/18 02:56:00;;;;;;;44.95;24.48;;;;;;;7.25;90.98;100353.50;4999762;28;20397;-87
2024/02/18 02:58:26;;;;;;;48.25;24.80;;;;;;;7.51;90.94;100374.97;5029693;28;20056;-87
2024/02/18 03:00:51;;;;;;;50.05;25.73;;;;;;;7.51;90.42;100367.00;5030507;28;20091;-87
2024/02/18 03:03:17;;;;;;;46.78;24.35;;;;;;;7.49;90.29;100371.69;5020072;28;20031;-87
2024/02/18 03:05:42;;;;;;;44.47;24.52;;;;;;;7.40;90.20;100359.56;5017085;28;20026;-87
2024/02/18 03:08:09;;;;;;;47.38;25.77;;;;;;;7.39;90.60;100368.56;5032832;28;20025;-87
2024/02/18 03:10:37;;;;;;;46.47;22.15;;;;;;;7.28;89.50;100347.81;5031037;28;20577;-87
2024/02/18 03:13:03;;;;;;;43.72;22.50;;;;;;;7.12;89.48;100305.56;5006202;28;20045;-87
2024/02/18 03:15:29;;;;;;;37.10;21.00;;;;;;;7.26;89.63;100347.19;5030068;28;20116;-86
2024/02/18 03:17:56;;;;;;;35.83;20.20;;;;;;;7.36;89.41;100360.94;5030073;28;20108;-87
2024/02/18 03:20:22;;;;;;;39.97;21.88;;;;;;;7.28;89.99;100354.94;5030574;28;20044;-87
2024/02/18 03:22:48;;;;;;;42.15;21.80;;;;;;;7.16;88.73;100327.28;5035978;28;20397;-87
2024/02/18 03:25:13;;;;;;;39.63;20.70;;;;;;;7.12;89.65;100333.97;5034711;28;20508;-87
2024/02/18 03:27:39;;;;;;;43.80;21.88;;;;;;;6.80;89.49;100280.38;5033673;28;20033;-87
2024/02/18 03:30:05;;;;;;;36.25;21.17;;;;;;;7.15;89.73;100336.25;5012124;28;20457;-87
2024/02/18 03:32:35;;;;;;;43.60;20.33;;;;;;;6.70;88.82;100273.75;5029409;28;20080;-86
2024/02/18 03:35:00;;;;;;;40.25;21.77;;;;;;;6.99;88.17;100341.81;4999658;28;20512;-87
2024/02/18 03:37:26;;;;;;;43.50;23.13;;;;;;;6.57;89.29;100247.91;5030246;28;20029;-87
2024/02/18 03:39:51;;;;;;;44.67;21.58;;;;;;;7.06;89.45;100326.75;5000154;28;20560;-87
2024/02/18 03:42:17;;;;;;;43.20;21.98;;;;;;;7.05;89.77;100336.56;5034617;28;20563;-87
2024/02/18 03:44:42;;;;;;;42.55;21.58;;;;;;;7.01;88.90;100307.94;5000172;28;20038;-87
2024/02/18 03:47:08;;;;;;;45.30;22.50;;;;;;;7.15;88.74;100329.09;5011057;28;20400;-87
2024/02/18 03:49:33;;;;;;;40.97;21.17;;;;;;;6.83;88.84;100281.84;5023900;28;20639;-87
2024/02/18 03:51:59;;;;;;;48.45;25.73;;;;;;;7.07;88.65;100323.94;5030807;28;20034;-87
2024/02/18 03:54:24;;;;;;;41.08;21.38;;;;;;;6.89;88.87;100302.31;5010683;28;20030;-87
2024/02/18 03:56:50;;;;;;;41.65;22.60;;;;;;;6.82;90.05;100299.56;4996908;28;20034;-88
2024/02/18 03:59:15;;;;;;;49.63;21.77;;;;;;;7.09;89.35;100323.72;5011632;28;20040;-87
2024/02/18 04:01:40;;;;;;;45.00;22.55;;;;;;;7.16;89.34;100329.94;5028947;28;20064;-87
2024/02/18 04:04:06;;;;;;;38.45;20.20;;;;;;;6.52;89.90;100233.53;5025425;28;20033;-87
2024/02/18 04:06:31;;;;;;;39.33;20.83;;;;;;;7.10;89.06;100304.16;5016358;28;20493;-88
2024/02/18 04:08:57;;;;;;;39.75;21.65;;;;;;;6.96;89.04;100294.41;5031378;28;20091;-88
2024/02/18 04:11:22;;;;;;;40.83;21.05;;;;;;;6.80;89.13;100259.16;4998045;28;20189;-87
2024/02/18 04:13:47;;;;;;;38.85;20.92;;;;;;;6.99;89.04;100302.78;5014667;28;20059;-87
2024/02/18 04:16:13;;;;;;;43.88;22.45;;;;;;;7.09;89.95;100332.53;5030480;28;20053;-87
2024/02/18 04:18:38;;;;;;;40.85;21.38;;;;;;;6.40;89.95;100237.72;5012047;28;20033;-87
2024/02/18 04:21:04;;;;;;;42.67;23.33;;;;;;;6.53;89.47;100216.63;5009483;28;20038;-86
2024/02/18 04:23:29;;;;;;;45.05;23.10;;;;;;;7.10;89.50;100312.13;5027776;28;20442;-87
2024/02/18 04:25:55;;;;;;;46.97;21.98;;;;;;;6.80;89.93;100255.66;5003366;28;20040;-87
2024/02/18 04:28:20;;;;;;;38.20;20.70;;;;;;;6.67;89.79;100218.38;5017207;28;20029;-87
2024/02/18 04:30:46;;;;;;;38.55;20.30;;;;;;;7.12;89.01;100288.84;4994288;28;20025;-87
2024/02/18 04:33:11;;;;;;;33.53;20.13;;;;;;;7.15;89.55;100299.06;5030061;28;20453;-87
2024/02/18 04:35:36;;;;;;;43.75;20.88;;;;;;;7.12;88.96;100294.97;4995643;28;20036;-87
2024/02/18 04:38:03;;;;;;;39.60;21.02;;;;;;;7.18;89.84;100319.94;5014715;28;20508;-87
2024/02/18 04:40:28;;;;;;;35.30;19.08;;;;;;;6.69;89.89;100219.03;5014769;28;20034;-87
2024/02/18 04:42:54;;;;;;;36.72;21.20;;;;;;;7.07;90.48;100293.91;5016271;28;20079;-87
2024/02/18 04:45:19;;;;;;;40.50;20.15;;;;;;;6.70;89.92;100237.44;5027603;28;20756;-87
2024/02/18 04:47:45;;;;;;;41.03;20.38;;;;;;;7.20;89.94;100286.06;5005860;28;20092;-86
2024/02/18 04:50:11;;;;;;;40.63;20.02;;;;;;;7.46;89.45;100307.50;4999219;28;20095;-87
2024/02/18 04:52:36;;;;;;;36.95;20.65;;;;;;;6.90;92.22;100300.47;5031018;28;20023;-87
2024/02/18 04:55:02;;;;;;;36.40;19.67;;;;;;;7.20;91.23;100292.19;5023343;28;20539;-87
2024/02/18 04:57:29;;;;;;;36.42;19.98;;;;;;;7.27;90.38;100289.59;5011779;28;20084;-87
2024/02/18 04:59:54;;;;;;;38.78;20.17;;;;;;;7.29;90.60;100293.69;5028225;28;20044;-87
2024/02/18 05:02:20;;;;;;;34.30;18.80;;;;;;;7.18;89.42;100280.13;5004470;28;20030;-87
2024/02/18 05:04:46;;;;;;;39.05;20.83;;;;;;;7.09;90.84;100266.16;5012171;28;20038;-87
2024/02/18 05:07:11;;;;;;;36.50;19.30;;;;;;;7.29;91.24;100283.06;5011042;28;20087;-87
2024/02/18 05:09:40;;;;;;;39.50;20.38;;;;;;;7.17;90.27;100276.63;5012451;28;20507;-87
2024/02/18 05:12:06;;;;;;;39.50;20.25;;;;;;;7.20;91.41;100276.25;5024360;28;20529;-87
2024/02/18 05:14:32;;;;;;;36.67;20.45;;;;;;;6.83;90.45;100218.16;5025101;28;20117;-87
2024/02/18 05:16:59;;;;;;;41.55;19.67;;;;;;;6.55;92.05;100180.94;5015124;28;20025;-87
2024/02/18 05:19:25;;;;;;;44.88;21.50;;;;;;;6.53;93.48;100277.63;5012614;28;20048;-87
2024/02/18 05:21:50;;;;;;;36.88;20.23;;;;;;;6.81;93.64;100278.56;5014769;28;20030;-87
2024/02/18 05:24:16;;;;;;;36.60;20.77;;;;;;;7.46;91.39;100273.81;5026300;28;20442;-87
2024/02/18 05:26:42;;;;;;;33.65;20.27;;;;;;;6.97;92.38;100251.72;5027751;28;20093;-87
2024/02/18 05:29:08;;;;;;;42.72;20.67;;;;;;;6.91;91.91;100180.84;5026884;28;20520;-87
2024/02/18 05:31:34;;;;;;;34.33;18.70;;;;;;;7.36;91.30;100246.75;5009658;28;20047;-87
2024/02/18 05:34:00;;;;;;;34.33;21.40;;;;;;;7.51;90.56;100255.44;5027979;28;20503;-87
2024/02/18 05:36:25;;;;;;;34.63;19.58;;;;;;;7.47;89.54;100243.56;5025397;28;20029;-87
2024/02/18 05:38:51;;;;;;;32.95;19.63;;;;;;;7.08;90.26;100178.72;5005970;28;20037;-87
2024/02/18 05:41:17;;;;;;;32.75;17.42;;;;;;;7.47;89.88;100232.94;5027603;28;20070;-87
2024/02/18 05:43:42;;;;;;;32.10;19.05;;;;;;;7.46;90.76;100239.28;5035439;28;20033;-87
2024/02/18 05:46:09;;;;;;;33.92;17.75;;;;;;;7.29;90.47;100208.72;5024691;28;20041;-87
2024/02/18 05:48:34;;;;;;;34.85;19.23;;;;;;;7.06;89.41;100133.78;5033600;28;20029;-87
2024/02/18 05:51:00;;;;;;;33.45;18.90;;;;;;;7.45;89.95;100202.25;5025028;28;20026;-87
2024/02/18 05:53:25;;;;;;;38.38;19.10;;;;;;;7.53;90.29;100218.84;5024003;28;20476;-87
2024/02/18 05:55:51;;;;;;;32.55;18.38;;;;;;;7.45;90.40;100207.56;5026806;28;20049;-87
2024/02/18 05:58:16;;;;;;;31.05;18.58;;;;;;;7.49;89.91;100214.97;5025299;28;20025;-87
2024/02/18 06:00:42;;;;;;;34.35;19.60;;;;;;;7.35;90.89;100204.47;5027995;28;20033;-87
2024/02/18 06:03:08;;;;;;;34.10;19.58;;;;;;;7.29;90.68;100195.44;5027148;28;20076;-87
2024/02/18 06:05:34;;;;;;;32.00;18.80;;;;;;;7.34;90.42;100193.00;5007079;28;20038;-88
2024/02/18 06:07:59;;;;;;;31.27;18.50;;;;;;;7.43;90.43;100214.91;5028447;28;20052;-87
2024/02/18 06:10:25;;;;;;;36.22;19.73;;;;;;;7.14;90.70;100201.88;5023750;28;20056;-87
2024/02/18 06:12:50;;;;;;;33.33;18.15;;;;;;;6.78;90.42;100154.22;5029191;28;20508;-87
2024/02/18 06:15:15;;;;;;;40.90;22.38;;;;;;;5.85;93.60;100150.84;5011038;28;20096;-87
2024/02/18 06:17:41;;;;;;;36.67;19.80;;;;;;;6.82;93.57;100209.34;5039344;28;20024;-88
2024/02/18 06:20:10;;;;;;;36.10;20.50;;;;;;;7.24;91.16;100216.44;4992570;28;20044;-87
2024/02/18 06:22:36;;;;;;;32.78;18.27;;;;;;;6.99;90.28;100182.56;5027500;28;20025;-87
2024/02/18 06:25:02;;;;;;;33.17;19.52;;;;;;;6.82;90.55;100171.38;5011683;28;20048;-86
2024/02/18 06:27:27;;;;;;;35.88;20.58;;;;;;;7.02;90.04;100176.84;5030065;28;20033;-87
2024/02/18 06:29:53;;;;;;;33.30;19.10;;;;;;;7.08;90.17;100195.47;5014398;28;20041;-87
2024/02/18 06:32:19;;;;;;;32.17;18.55;;;;;;;7.07;89.62;100172.63;5033019;28;20025;-87
2024/02/18 06:34:45;;;;;;;38.05;19.17;;;;;;;6.96;89.96;100151.06;5000173;28;20083;-87
2024/02/18 06:37:11;;;;;;;34.42;19.92;;;;;;;7.22;89.61;100196.41;5036358;28;20053;-88
2024/02/18 06:39:37;;;;;;;33.75;19.40;;;;;;;7.08;89.91;100184.03;5026335;28;20033;-87
2024/02/18 06:42:02;;;;;;;30.30;19.30;;;;;;;7.16;89.98;100203.31;5015391;28;20120;-87
2024/02/18 06:44:28;;;;;;;33.33;19.92;;;;;;;6.52;89.44;100112.38;5029614;28;20030;-87
2024/02/18 06:46:53;;;;;;;32.72;19.67;;;;;;;6.24;92.12;100171.66;5032131;28;20038;-87
2024/02/18 06:49:18;;;;;;;34.58;20.27;;;;;;;6.46;90.90;100125.56;5012021;28;20026;-87
2024/02/18 06:51:44;;;;;;;38.67;22.05;;;;;;;6.81;90.98;100156.50;5032525;28;20052;-87
2024/02/18 06:54:09;;;;;;;38.72;21.60;;;;;;;7.09;89.58;100172.41;5015708;28;20103;-87
2024/02/18 06:56:35;;;;;;;38.92;22.67;;;;;;;7.11;89.97;100186.31;5025655;28;20120;-87
2024/02/18 06:59:00;;;;;;;39.72;23.08;;;;;;;6.68;90.90;100153.72;5009980;28;20029;-87
2024/02/18 07:01:25;;;;;;;42.40;22.65;;;;;;;6.74;91.09;100150.31;4997059;28;20063;-87
2024/02/18 07:03:51;;;;;;;38.90;21.50;;;;;;;7.06;90.58;100167.47;5004581;28;20037;-87
2024/02/18 07:06:17;;;;;;;37.47;20.55;;;;;;;6.75;89.66;100136.84;5027346;28;20029;-87
2024/02/18 07:08:44;;;;;;;40.08;20.88;;;;;;;7.01;90.39;100176.00;5029903;28;20030;-87
2024/02/18 07:11:10;;;;;;;38.80;21.90;;;;;;;6.90;89.89;100150.03;5014435;28;20500;-88
2024/02/18 07:13:35;;;;;;;44.28;22.85;;;;;;;6.64;90.65;100116.13;4997136;28;20044;-87
2024/02/18 07:16:01;;;;;;;38.47;21.58;;;;;;;6.95;90.24;100158.22;4997707;28;20026;-87
2024/02/18 07:18:26;;;;;;;42.95;22.48;;;;;;;7.00;90.04;100162.94;5030688;28;20025;-87
2024/02/18 07:20:52;;;;;;;48.92;20.95;;;;;;;6.70;90.69;100122.53;5011991;28;20033;-87
2024/02/18 07:23:17;;;;;;;39.40;20.70;;;;;;;7.15;90.38;100164.50;5026323;28;20029;-87
2024/02/18 07:25:44;;;;;;;37.33;20.60;;;;;;;7.03;90.89;100159.91;5016039;28;20033;-87
2024/02/18 07:28:10;;;;;;;38.67;21.52;;;;;;;6.72;90.36;100115.19;5031615;28;20034;-87
2024/02/18 07:30:35;;;;;;;34.78;19.23;;;;;;;7.05;91.28;100168.50;5012634;28;20405;-87
2024/02/18 07:33:01;;;;;;;36.13;19.42;;;;;;;7.19;91.02;100151.63;5032956;28;20040;-86
2024/02/18 07:35:27;;;;;;;33.83;20.00;;;;;;;7.08;90.74;100122.97;4997178;28;20037;-87
2024/02/18 07:37:53;;;;;;;33.45;20.73;;;;;;;7.12;90.21;100125.03;5031599;28;20026;-87
2024/02/18 07:40:18;;;;;;;33.47;21.08;;;;;;;7.06;91.21;100144.41;4992352;28;21040;-87
2024/02/18 07:42:44;;;;;;;35.40;20.10;;;;;;;7.38;91.21;100158.94;5013839;28;20048;-87
2024/02/18 07:45:10;;;;;;;33.38;19.30;;;;;;;7.43;90.17;100157.31;5025444;28;20112;-87
2024/02/18 07:47:35;;;;;;;34.47;19.48;;;;;;;7.45;89.96;100141.16;5030204;28;20029;-87
2024/02/18 07:50:01;;;;;;;35.63;20.38;;;;;;;7.33;90.18;100110.88;5029296;28;20105;-87
2024/02/18 07:52:26;;;;;;;37.72;19.80;;;;;;;7.12;89.91;100084.44;5013774;28;20084;-86
2024/02/18 07:54:52;;;;;;;35.22;20.52;;;;;;;7.62;89.53;100157.63;5011739;28;20032;-87
2024/02/18 07:57:17;;;;;;;38.78;20.98;;;;;;;7.14;89.82;100080.53;5030231;28;20071;-87
2024/02/18 07:59:43;;;;;;;32.97;19.33;;;;;;;7.40;90.55;100160.34;5026171;28;20037;-87
2024/02/18 08:02:08;;;;;;;36.55;20.15;;;;;;;7.44;90.71;100147.50;5028625;28;20026;-88
2024/02/18 08:04:33;;;;;;;34.97;20.33;;;;;;;7.23;91.15;100142.28;5009464;28;20489;-88
2024/02/18 08:06:59;;;;;;;39.47;21.85;;;;;;;7.36;91.07;100147.69;4992085;28;20560;-87
2024/02/18 08:09:24;;;;;;;39.72;20.55;;;;;;;7.02;92.89;100145.81;5026063;28;20036;-88
2024/02/18 08:11:50;;;;;;;43.80;25.92;;;;;;;6.69;94.27;100104.94;5014601;28;20065;-88
2024/02/18 08:14:15;;;;;;;36.17;21.55;;;;;;;7.15;93.22;100116.69;5022209;28;20029;-88
2024/02/18 08:16:40;;;;;;;38.80;23.58;;;;;;;7.25;93.30;100130.44;5027616;28;20033;-88
2024/02/18 08:19:06;;;;;;;34.63;18.77;;;;;;;7.54;91.95;100126.72;4997584;28;20060;-88
2024/02/18 08:21:31;;;;;;;36.85;22.17;;;;;;;7.32;91.97;100099.44;5017622;28;20749;-87
2024/02/18 08:23:57;;;;;;;33.13;21.00;;;;;;;7.56;90.90;100106.06;4995448;28;20079;-88
2024/02/18 08:26:24;;;;;;;34.25;19.27;;;;;;;7.61;92.21;100127.56;5027896;28;20381;-88
2024/02/18 08:28:51;;;;;;;33.28;19.38;;;;;;;7.30;93.21;100074.91;5029281;28;20030;-88
2024/02/18 08:31:17;;;;;;;26.73;17.38;;;;;;;7.33;91.09;100049.81;5010863;28;20049;-88
2024/02/18 08:33:45;;;;;;;32.90;20.00;;;;;;;7.76;90.86;100119.44;5009826;28;20030;-88
2024/02/18 08:36:10;;;;;;;27.60;17.52;;;;;;;7.53;92.59;100079.94;5030491;28;20108;-88
2024/02/18 08:38:36;;;;;;;26.30;17.00;;;;;;;7.25;91.73;100034.84;5013655;28;20211;-88
2024/02/18 08:41:02;;;;;;;28.10;16.67;;;;;;;7.83;91.38;100113.13;5027860;28;20037;-88
2024/02/18 08:43:28;;;;;;;28.08;17.80;;;;;;;7.74;92.83;100106.34;5023929;28;20032;-88
2024/02/18 08:45:53;;;;;;;30.15;18.42;;;;;;;7.35;95.71;100080.47;5012934;28;20033;-88
2024/02/18 08:48:18;;;;;;;31.90;17.77;;;;;;;7.65;92.08;100064.22;5007978;28;20037;-88
2024/02/18 08:50:44;;;;;;;27.20;16.73;;;;;;;7.80;91.81;100062.22;5008805;28;20029;-88
2024/02/18 08:53:09;;;;;;;28.83;18.25;;;;;;;7.36;92.38;99994.44;5008440;28;20037;-88
2024/02/18 08:55:35;;;;;;;30.13;16.73;;;;;;;7.68;93.13;100056.69;5021942;28;20047;-88
2024/02/18 08:58:01;;;;;;;28.35;16.70;;;;;;;7.21;92.39;99974.38;5004619;28;20102;-87
2024/02/18 09:00:26;;;;;;;24.25;15.68;;;;;;;7.91;91.85;100064.28;5025537;28;20508;-88
2024/02/18 09:02:52;;;;;;;24.40;14.70;;;;;;;7.82;91.32;100037.06;5013321;28;20033;-87
2024/02/18 09:05:17;;;;;;;32.17;16.95;;;;;;;8.00;90.32;100032.00;5024746;28;20101;-88
2024/02/18 09:07:43;;;;;;;26.63;16.90;;;;;;;7.53;90.82;99963.03;5008940;28;20029;-87
2024/02/18 09:10:09;;;;;;;26.15;16.80;;;;;;;7.97;91.76;100040.38;4994699;28;20121;-87
2024/02/18 09:12:34;;;;;;;28.15;15.82;;;;;;;8.04;92.91;100061.63;5007501;28;20096;-87
2024/02/18 09:15:00;;;;;;;26.85;15.30;;;;;;;8.11;91.23;100049.19;5009430;28;20030;-87
2024/02/18 09:17:25;;;;;;;24.67;16.38;;;;;;;7.75;91.01;99980.44;5010221;28;20460;-86
2024/02/18 09:19:51;;;;;;;23.33;14.40;;;;;;;7.76;91.48;99976.75;5011287;28;20030;-87
2024/02/18 09:22:16;;;;;;;24.45;15.15;;;;;;;8.14;91.40;100049.63;5028587;28;20053;-87
2024/02/18 09:24:43;;;;;;;23.27;15.40;;;;;;;8.20;91.42;100067.41;5025422;28;20076;-87
2024/02/18 09:27:08;;;;;;;21.00;14.65;;;;;;;8.20;91.41;100042.66;5004373;28;20045;-87
2024/02/18 09:29:34;;;;;;;27.50;15.27;;;;;;;8.29;91.24;100044.94;5024403;28;20041;-86
2024/02/18 09:31:59;;;;;;;28.60;17.30;;;;;;;8.23;91.80;100053.69;5022345;28;20030;-87
2024/02/18 09:34:25;;;;;;;23.85;15.00;;;;;;;8.40;90.90;100058.66;4993524;28;20064;-87
2024/02/18 09:36:50;;;;;;;23.75;14.68;;;;;;;8.31;91.20;100047.41;5009105;28;20111;-87
2024/02/18 09:39:19;;;;;;;22.17;13.98;;;;;;;8.27;90.27;100019.56;5013687;28;20018;-88
2024/02/18 09:41:49;;;;;;;21.60;13.73;;;;;;;8.46;90.35;100057.81;4996825;28;20096;-86
2024/02/18 09:44:14;;;;;;;26.02;16.25;;;;;;;8.43;90.04;100029.78;5015093;28;20083;-87
2024/02/18 09:46:42;;;;;;;19.42;13.88;;;;;;;8.13;90.21;99981.50;5006007;28;20052;-87
2024/02/18 09:49:08;;;;;;;23.77;13.90;;;;;;;8.51;90.23;100034.09;5008955;28;20017;-87
2024/02/18 09:51:37;;;;;;;25.55;16.73;;;;;;;8.51;91.12;100034.09;5021227;28;20485;-86
2024/02/18 09:54:10;;;;;;;29.83;20.02;;;;;;;8.23;92.60;100013.78;5023542;28;20026;-86
2024/02/18 09:56:36;;;;;;;22.60;13.80;;;;;;;8.24;90.29;99956.94;5025189;28;20116;-86
2024/02/18 09:59:02;;;;;;;24.27;16.25;;;;;;;8.50;90.27;100001.34;5022802;28;20109;-86
2024/02/18 10:01:27;;;;;;;23.48;14.82;;;;;;;8.61;90.55;100010.53;5025590;28;20659;-86
2024/02/18 10:03:53;;;;;;;26.65;15.05;;;;;;;8.76;90.23;100014.59;5007327;28;20124;-87
2024/02/18 10:06:18;;;;;;;21.77;13.60;;;;;;;8.91;88.63;100023.16;5007171;28;20393;-86
2024/02/18 10:08:51;;;;;;;19.88;14.38;;;;;;;8.92;89.16;100016.00;5021553;28;20048;-87
2024/02/18 10:11:19;;;;;;;28.67;17.90;;;;;;;8.92;88.74;100003.50;5026199;28;20034;-86
2024/02/18 10:13:45;;;;;;;18.42;11.98;;;;;;;8.87;87.69;99975.88;5006489;28;20495;-86
2024/02/18 10:16:10;;;;;;;23.98;15.73;;;;;;;8.81;89.75;99980.19;5010144;28;20080;-86
2024/02/18 10:18:36;;;;;;;28.30;16.88;;;;;;;8.41;90.69;99957.34;4993227;28;20067;-86
2024/02/18 10:21:02;;;;;;;21.83;14.30;;;;;;;8.74;89.46;99974.06;5004589;28;20366;-86
2024/02/18 10:23:28;;;;;;;26.25;15.85;;;;;;;8.91;89.52;99988.56;5027193;28;20033;-86
2024/02/18 10:25:53;;;;;;;26.52;16.70;;;;;;;8.99;89.24;99980.34;5003438;28;20524;-86
2024/02/18 10:28:20;;;;;;;30.27;17.10;;;;;;;8.68;90.25;99952.78;5009003;28;20107;-87
2024/02/18 10:30:45;;;;;;;23.65;16.00;;;;;;;8.80;89.31;99935.94;5025884;28;20503;-87
2024/02/18 10:33:11;;;;;;;26.40;15.25;;;;;;;8.36;91.20;99895.16;5007779;28;20034;-87
2024/02/18 10:35:36;;;;;;;28.98;17.83;;;;;;;8.27;90.83;99882.09;5010781;28;20512;-88
2024/02/18 10:38:04;;;;;;;24.52;15.02;;;;;;;8.85;88.78;99901.53;5006626;28;20163;-88
2024/02/18 10:41:01;;;;;;;24.70;16.25;;;;;;;8.95;90.12;99952.47;4989578;28;20441;-88
2024/02/18 10:43:30;;;;;;;25.90;17.52;;;;;;;8.91;90.92;99942.50;5027383;28;20588;-87
2024/02/18 10:45:56;;;;;;;29.35;18.95;;;;;;;8.93;90.85;99919.94;4996244;28;20029;-87
2024/02/18 10:48:24;;;;;;;26.80;16.00;;;;;;;9.25;88.71;99949.28;5023130;28;20045;-87
2024/02/18 10:50:51;;;;;;;22.20;13.75;;;;;;;9.36;88.52;99924.63;5023937;28;20460;-87
2024/02/18 10:53:31;;;;;;;25.23;15.23;;;;;;;9.18;90.06;99924.53;5007201;28;20029;-87
2024/02/18 10:56:12;;;;;;;23.17;15.35;;;;;;;8.97;90.83;99904.38;5019110;28;20091;-88
2024/02/18 10:58:43;;;;;;;33.60;19.55;;;;;;;9.37;90.16;99916.44;5029066;28;21219;-88
2024/02/18 11:01:12;;;;;;;25.50;16.08;;;;;;;9.29;88.77;99870.56;5027755;28;20029;-87
2024/02/18 11:03:47;;;;;;;29.15;17.67;;;;;;;9.55;89.28;99907.69;4989945;28;20033;-87
2024/02/18 11:06:13;;;;;;;23.13;14.63;;;;;;;9.44;89.06;99863.09;5029880;28;20033;-87
2024/02/18 11:08:40;;;;;;;23.38;15.15;;;;;;;9.65;88.99;99894.72;5032522;28;20036;-87
2024/02/18 11:11:12;;;;;;;21.08;13.55;;;;;;;9.73;88.64;99899.78;5028581;28;20026;-87
2024/02/18 11:13:39;;;;;;;20.67;12.30;;;;;;;9.55;88.43;99860.56;5025959;28;20056;-87